createdAt,value
2023-03-17T00:00:24.367Z,3.92
2023-03-17T00:02:39.309Z,6.13
2023-03-17T00:04:43.791Z,5.13
2023-03-17T00:06:45.855Z,4.30
2023-03-17T00:08:47.977Z,3.88
2023-03-17T00:10:54.713Z,4.53
2023-03-17T00:13:01.284Z,3.80
2023-03-17T00:15:07.759Z,5.05
2023-03-17T00:17:28.201Z,4.55
2023-03-17T00:19:35.330Z,4.88
2023-03-17T00:21:39.315Z,4.32
2023-03-17T00:23:43.550Z,4.60
2023-03-17T00:25:48.043Z,4.78
2023-03-17T00:27:51.677Z,6.03
2023-03-17T00:29:57.185Z,4.65
2023-03-17T00:32:00.810Z,4.57
2023-03-17T00:34:05.981Z,4.10
2023-03-17T00:36:14.549Z,4.35
2023-03-17T00:38:20.516Z,5.00
2023-03-17T00:40:25.965Z,5.35
2023-03-17T00:42:28.012Z,5.95
2023-03-17T00:44:33.315Z,5.90
2023-03-17T00:46:38.551Z,5.82
2023-03-17T00:48:41.513Z,6.65
2023-03-17T00:50:43.747Z,5.45
2023-03-17T00:53:03.660Z,5.78
2023-03-17T00:55:09.091Z,5.97
2023-03-17T00:57:12.648Z,6.15
2023-03-17T00:59:20.699Z,6.18
2023-03-17T01:01:25.615Z,6.07
2023-03-17T01:03:29.761Z,5.22
2023-03-17T01:05:34.221Z,7.03
2023-03-17T01:07:37.112Z,6.63
2023-03-17T01:09:38.995Z,6.28
2023-03-17T01:11:40.621Z,6.13
2023-03-17T01:13:45.576Z,6.65
2023-03-17T01:15:48.125Z,6.13
2023-03-17T01:17:52.743Z,6.00
2023-03-17T01:20:18.166Z,6.05
2023-03-17T01:22:19.593Z,5.60
2023-03-17T01:24:27.104Z,4.72
2023-03-17T01:26:31.785Z,4.60
2023-03-17T01:28:52.680Z,4.10
2023-03-17T01:30:56.938Z,3.80
2023-03-17T01:32:59.184Z,2.20
2023-03-17T01:35:04.740Z,3.15
2023-03-17T01:37:06.977Z,3.20
2023-03-17T01:39:08.511Z,2.05
2023-03-17T01:41:11.187Z,1.55
2023-03-17T01:43:31.460Z,1.73
2023-03-17T01:46:00.507Z,0.90
2023-03-17T01:48:01.910Z,1.08
2023-03-17T01:50:08.742Z,0.90
2023-03-17T01:52:12.724Z,1.13
2023-03-17T01:54:17.151Z,1.20
2023-03-17T01:56:21.696Z,0.98
2023-03-17T01:58:24.267Z,1.00
2023-03-17T02:00:29.692Z,1.10
2023-03-17T02:02:38.490Z,1.40
2023-03-17T02:04:42.858Z,1.67
2023-03-17T02:06:58.674Z,2.20
2023-03-17T02:09:01.689Z,2.72
2023-03-17T02:11:06.248Z,2.03
2023-03-17T02:13:12.425Z,2.45
2023-03-17T02:15:17.433Z,2.75
2023-03-17T02:17:23.790Z,2.90
2023-03-17T02:19:28.591Z,4.25
2023-03-17T02:21:33.051Z,4.88
2023-03-17T02:23:34.699Z,4.68
2023-03-17T02:25:39.947Z,3.72
2023-03-17T02:27:46.402Z,4.97
2023-03-17T02:29:50.891Z,4.75
2023-03-17T02:31:55.177Z,4.45
2023-03-17T02:33:56.655Z,4.68
2023-03-17T02:36:01.472Z,5.32
2023-03-17T02:38:05.652Z,4.70
2023-03-17T02:40:11.358Z,6.13
2023-03-17T02:42:15.607Z,5.18
2023-03-17T02:44:17.409Z,5.90
2023-03-17T02:46:21.888Z,6.35
2023-03-17T02:48:23.669Z,5.85
2023-03-17T02:50:29.093Z,6.55
2023-03-17T02:52:33.488Z,7.25
2023-03-17T02:54:38.021Z,7.35
2023-03-17T02:56:42.155Z,6.97
2023-03-17T02:58:43.567Z,7.43
2023-03-17T03:02:50.417Z,8.38
2023-03-17T03:04:54.398Z,7.82
2023-03-17T03:07:00.581Z,6.82
2023-03-17T03:09:06.554Z,7.45
2023-03-17T03:11:10.369Z,8.50
2023-03-17T03:13:14.108Z,8.27
2023-03-17T03:15:19.655Z,8.65
2023-03-17T03:17:22.949Z,7.70
2023-03-17T03:19:29.374Z,7.93
2023-03-17T03:21:33.437Z,9.00
2023-03-17T03:23:40.354Z,7.72
2023-03-17T03:25:46.745Z,8.02
2023-03-17T03:27:48.767Z,7.07
2023-03-17T03:29:53.322Z,8.68
2023-03-17T03:31:57.226Z,8.15
2023-03-17T03:34:03.734Z,7.82
2023-03-17T03:36:07.707Z,7.63
2023-03-17T03:38:14.919Z,7.93
2023-03-17T03:40:36.066Z,7.00
2023-03-17T03:42:37.482Z,8.65
2023-03-17T03:44:38.930Z,8.82
2023-03-17T03:48:47.390Z,9.07
2023-03-17T03:50:49.225Z,8.23
2023-03-17T03:52:53.574Z,9.95
2023-03-17T03:54:57.934Z,8.85
2023-03-17T03:59:03.494Z,8.32
2023-03-17T04:01:08.204Z,7.40
2023-03-17T04:03:28.175Z,7.95
2023-03-17T04:05:29.711Z,9.30
2023-03-17T04:07:31.321Z,8.80
2023-03-17T04:09:32.830Z,10.05
2023-03-17T04:11:36.795Z,10.32
2023-03-17T04:13:41.119Z,9.38
2023-03-17T04:15:42.732Z,10.00
2023-03-17T04:17:44.438Z,9.73
2023-03-17T04:19:46.363Z,8.88
2023-03-17T04:21:48.644Z,10.68
2023-03-17T04:23:52.757Z,10.32
2023-03-17T04:26:13.595Z,9.70
2023-03-17T04:28:15.231Z,9.15
2023-03-17T04:30:17.120Z,10.07
2023-03-17T04:32:18.628Z,9.40
2023-03-17T04:34:23.175Z,9.70
2023-03-17T04:36:24.821Z,10.00
2023-03-17T04:38:29.166Z,10.68
2023-03-17T04:40:31.588Z,9.13
2023-03-17T04:42:39.541Z,11.35
2023-03-17T04:44:44.074Z,11.80
2023-03-17T04:46:48.608Z,10.70
2023-03-17T04:51:12.510Z,10.15
2023-03-17T04:53:13.947Z,10.60
2023-03-17T04:55:16.110Z,10.50
2023-03-17T04:57:20.637Z,8.80
2023-03-17T04:59:22.061Z,8.60
2023-03-17T05:01:26.497Z,9.10
2023-03-17T05:03:31.092Z,8.27
2023-03-17T05:05:35.137Z,8.82
2023-03-17T05:07:55.443Z,8.52
2023-03-17T05:12:01.132Z,7.38
2023-03-17T05:14:05.331Z,7.03
2023-03-17T05:18:13.478Z,5.70
2023-03-17T05:22:19.022Z,4.13
2023-03-17T05:24:20.974Z,4.43
2023-03-17T05:26:22.404Z,3.85
2023-03-17T05:28:26.833Z,3.90
2023-03-17T05:30:31.421Z,4.07
2023-03-17T05:32:33.131Z,4.50
2023-03-17T05:34:53.238Z,4.10
2023-03-17T05:36:57.589Z,3.28
2023-03-17T05:39:01.961Z,3.97
2023-03-17T05:41:06.252Z,3.42
2023-03-17T05:43:07.781Z,3.53
2023-03-17T05:47:13.156Z,3.58
2023-03-17T05:49:15.360Z,4.60
2023-03-17T05:51:16.870Z,3.38
2023-03-17T05:53:21.181Z,3.90
2023-03-17T05:55:25.604Z,3.47
2023-03-17T05:57:27.383Z,4.22
2023-03-17T05:59:47.830Z,3.25
2023-03-17T06:01:49.266Z,3.83
2023-03-17T06:04:09.881Z,3.28
2023-03-17T06:06:25.151Z,3.38
2023-03-17T06:08:56.021Z,2.20
2023-03-17T06:11:22.115Z,2.78
2023-03-17T06:13:45.982Z,2.50
2023-03-17T06:16:30.768Z,2.75
2023-03-17T06:19:04.207Z,3.00
2023-03-17T06:24:00.197Z,2.60
2023-03-17T06:26:19.985Z,2.40
2023-03-17T06:28:40.709Z,3.00
2023-03-17T06:30:52.146Z,3.47
2023-03-17T06:35:29.522Z,2.63
2023-03-17T06:37:43.672Z,4.78
2023-03-17T06:40:08.310Z,3.83
2023-03-17T06:42:36.733Z,3.17
2023-03-17T06:44:52.179Z,3.53
2023-03-17T06:47:20.832Z,3.17
2023-03-17T06:51:26.028Z,4.20
2023-03-17T06:53:30.555Z,4.72
2023-03-17T06:55:34.866Z,4.60
2023-03-17T06:57:39.305Z,4.30
2023-03-17T07:02:03.681Z,4.78
2023-03-17T07:04:09.627Z,4.60
2023-03-17T07:06:14.416Z,4.28
2023-03-17T07:08:19.570Z,4.88
2023-03-17T07:10:24.763Z,5.65
2023-03-17T07:12:28.993Z,5.82
2023-03-17T07:14:35.683Z,5.65
2023-03-17T07:16:37.686Z,5.10
2023-03-17T07:18:58.276Z,6.15
2023-03-17T07:21:01.092Z,4.82
2023-03-17T07:23:02.750Z,5.75
2023-03-17T07:25:04.773Z,6.63
2023-03-17T07:27:09.831Z,7.10
2023-03-17T07:29:11.389Z,7.25
2023-03-17T07:31:31.574Z,8.05
2023-03-17T07:33:36.025Z,8.25
2023-03-17T07:35:56.232Z,8.00
2023-03-17T07:37:57.668Z,8.98
2023-03-17T07:42:03.537Z,8.13
2023-03-17T07:44:09.621Z,9.95
2023-03-17T07:46:29.919Z,9.45
2023-03-17T07:48:31.951Z,8.88
2023-03-17T07:50:36.872Z,8.52
2023-03-17T07:52:38.421Z,8.85
2023-03-17T07:56:47.746Z,8.73
2023-03-17T07:58:49.464Z,9.88
2023-03-17T08:00:53.956Z,9.68
2023-03-17T08:03:14.001Z,10.15
2023-03-17T08:05:18.770Z,10.32
2023-03-17T08:07:20.283Z,10.57
2023-03-17T08:09:25.018Z,10.40
2023-03-17T08:11:29.635Z,9.98
2023-03-17T08:13:34.417Z,9.60
2023-03-17T08:15:36.722Z,9.30
2023-03-17T08:17:41.868Z,8.70
2023-03-17T08:19:45.819Z,9.32
2023-03-17T08:21:47.451Z,9.95
2023-03-17T08:24:07.888Z,9.05
2023-03-17T08:26:09.436Z,10.32
2023-03-17T08:28:10.871Z,10.30
2023-03-17T08:32:18.180Z,10.27
2023-03-17T08:34:24.031Z,11.00
2023-03-17T08:36:28.546Z,12.75
2023-03-17T08:40:34.415Z,12.68
2023-03-17T08:42:39.077Z,14.30
2023-03-17T08:44:42.833Z,13.15
2023-03-17T08:46:45.575Z,11.25
2023-03-17T08:50:53.872Z,12.35
2023-03-17T08:52:58.294Z,13.27
2023-03-17T08:55:03.094Z,14.13
2023-03-17T08:57:07.455Z,12.48
2023-03-17T08:59:09.424Z,11.30
2023-03-17T09:01:14.489Z,11.40
2023-03-17T09:03:16.293Z,11.55
2023-03-17T09:05:17.902Z,11.05
2023-03-17T09:07:22.206Z,10.93
2023-03-17T09:09:23.673Z,10.70
2023-03-17T09:11:29.357Z,12.52
2023-03-17T09:13:30.992Z,11.15
2023-03-17T09:15:33.926Z,11.38
2023-03-17T09:17:37.485Z,11.93
2023-03-17T09:19:44.869Z,9.65
2023-03-17T09:22:08.396Z,11.13
2023-03-17T09:24:12.317Z,10.02
2023-03-17T09:26:23.945Z,9.43
2023-03-17T09:28:46.938Z,8.70
2023-03-17T09:31:00.623Z,9.05
2023-03-17T09:33:03.949Z,7.75
2023-03-17T09:35:16.188Z,7.18
2023-03-17T09:37:26.943Z,6.53
2023-03-17T09:39:54.673Z,7.00
2023-03-17T09:42:23.035Z,4.90
2023-03-17T09:44:53.223Z,3.92
2023-03-17T09:47:12.848Z,4.45
2023-03-17T09:49:28.193Z,4.18
2023-03-17T09:53:56.766Z,3.33
2023-03-17T09:55:58.874Z,2.95
2023-03-17T09:58:03.869Z,3.10
2023-03-17T10:00:16.598Z,3.10
2023-03-17T10:02:40.110Z,2.53
2023-03-17T10:04:43.937Z,2.78
2023-03-17T10:06:46.830Z,3.25
2023-03-17T10:08:55.522Z,2.80
2023-03-17T10:11:05.303Z,4.10
2023-03-17T10:13:25.309Z,4.90
2023-03-17T10:15:56.424Z,5.80
2023-03-17T10:18:18.244Z,5.32
2023-03-17T10:20:30.241Z,5.90
2023-03-17T10:22:58.134Z,6.65
2023-03-17T10:25:04.755Z,5.80
2023-03-17T10:27:07.708Z,5.40
2023-03-17T10:29:14.904Z,5.07
2023-03-17T10:31:20.482Z,5.50
2023-03-17T10:33:22.403Z,5.55
2023-03-17T10:35:26.768Z,6.10
2023-03-17T10:37:36.578Z,5.65
2023-03-17T10:39:46.307Z,5.53
2023-03-17T10:41:56.175Z,4.03
2023-03-17T10:44:00.504Z,4.15
2023-03-17T10:46:05.885Z,4.07
2023-03-17T10:48:08.445Z,3.80
2023-03-17T10:50:41.854Z,4.05
2023-03-17T10:52:47.424Z,4.10
2023-03-17T10:54:51.715Z,4.03
2023-03-17T10:57:01.271Z,3.35
2023-03-17T10:59:07.194Z,3.75
2023-03-17T11:01:35.881Z,4.70
2023-03-17T11:03:39.214Z,3.63
2023-03-17T11:05:40.690Z,5.03
2023-03-17T11:07:42.138Z,4.00
2023-03-17T11:09:49.547Z,2.95
2023-03-17T11:12:09.100Z,3.03
2023-03-17T11:14:15.330Z,3.88
2023-03-17T11:16:23.512Z,3.15
2023-03-17T11:18:37.698Z,2.75
2023-03-17T11:20:46.929Z,3.05
2023-03-17T11:22:56.508Z,2.72
2023-03-17T11:24:58.086Z,3.28
2023-03-17T11:27:01.211Z,3.50
2023-03-17T11:29:14.591Z,3.10
2023-03-17T11:31:39.398Z,3.25
2023-03-17T11:34:00.077Z,2.92
2023-03-17T11:36:22.996Z,3.78
2023-03-17T11:38:30.953Z,2.90
2023-03-17T11:40:55.540Z,2.75
2023-03-17T11:43:04.122Z,2.20
2023-03-17T11:45:22.659Z,2.80
2023-03-17T11:47:43.077Z,2.75
2023-03-17T11:50:00.886Z,3.28
2023-03-17T11:52:10.405Z,3.10
2023-03-17T11:54:23.985Z,2.40
2023-03-17T11:56:40.214Z,2.17
2023-03-17T11:58:47.046Z,2.60
2023-03-17T12:00:57.099Z,2.70
2023-03-17T12:03:14.828Z,2.85
2023-03-17T12:05:23.141Z,2.25
2023-03-17T12:07:33.618Z,2.70
2023-03-17T12:09:43.450Z,2.28
2023-03-17T12:11:47.828Z,2.97
2023-03-17T12:16:00.454Z,2.33
2023-03-17T12:18:13.860Z,2.35
2023-03-17T12:20:25.138Z,2.10
2023-03-17T12:22:34.409Z,1.88
2023-03-17T12:24:46.705Z,1.83
2023-03-17T12:26:54.407Z,2.10
2023-03-17T12:29:10.893Z,2.15
2023-03-17T12:31:35.575Z,1.88
2023-03-17T12:33:58.824Z,1.70
2023-03-17T12:36:01.555Z,1.35
2023-03-17T12:38:09.782Z,1.42
2023-03-17T12:40:16.689Z,1.55
2023-03-17T12:42:23.781Z,1.42
2023-03-17T12:44:39.273Z,1.90
2023-03-17T12:47:13.520Z,1.55
2023-03-17T12:49:15.141Z,1.30
2023-03-17T12:51:36.284Z,1.33
2023-03-17T12:53:42.762Z,2.50
2023-03-17T12:55:49.375Z,2.00
2023-03-17T12:58:24.248Z,1.65
2023-03-17T13:00:33.956Z,1.40
2023-03-17T13:02:39.590Z,1.50
2023-03-17T13:04:47.345Z,3.05
2023-03-17T13:07:03.915Z,1.48
2023-03-17T13:09:23.825Z,1.27
2023-03-17T13:11:27.279Z,2.35
2023-03-17T13:13:44.571Z,2.17
2023-03-17T13:15:52.235Z,1.77
2023-03-17T13:18:15.370Z,1.48
2023-03-17T13:20:20.515Z,1.20
2023-03-17T13:22:42.411Z,0.90
2023-03-17T13:24:51.367Z,1.75
2023-03-17T13:27:01.714Z,1.75
2023-03-17T13:29:22.418Z,1.77
2023-03-17T13:31:28.056Z,1.33
2023-03-17T13:33:32.887Z,2.00
2023-03-17T13:35:47.721Z,1.48
2023-03-17T13:37:58.190Z,1.27
2023-03-17T13:40:11.208Z,1.20
2023-03-17T13:42:34.138Z,0.80
2023-03-17T13:45:05.532Z,1.52
2023-03-17T13:47:28.386Z,1.30
2023-03-17T13:49:36.321Z,1.48
2023-03-17T13:51:40.179Z,1.88
2023-03-17T13:53:56.962Z,1.70
2023-03-17T13:56:20.051Z,1.27
2023-03-17T13:58:24.983Z,1.42
2023-03-17T14:00:46.853Z,1.65
2023-03-17T14:02:49.116Z,1.50
2023-03-17T14:04:58.887Z,1.70
2023-03-17T14:07:06.926Z,2.05
2023-03-17T14:09:19.532Z,1.35
2023-03-17T14:11:27.696Z,1.95
2023-03-17T14:13:44.968Z,1.60
2023-03-17T14:15:49.647Z,1.65
2023-03-17T14:17:57.541Z,1.52
2023-03-17T14:20:01.953Z,1.63
2023-03-17T14:22:04.637Z,2.75
2023-03-17T14:24:22.340Z,1.83
2023-03-17T14:26:24.907Z,3.13
2023-03-17T14:28:28.197Z,1.90
2023-03-17T14:30:33.660Z,1.35
2023-03-17T14:32:37.933Z,2.17
2023-03-17T14:34:43.389Z,1.77
2023-03-17T14:36:44.827Z,1.30
2023-03-17T14:38:54.050Z,2.08
2023-03-17T14:41:00.835Z,1.83
2023-03-17T14:43:04.960Z,2.22
2023-03-17T14:45:08.420Z,1.15
2023-03-17T14:47:24.177Z,2.58
2023-03-17T14:49:25.641Z,1.35
2023-03-17T14:51:32.404Z,2.17
2023-03-17T14:53:53.554Z,1.05
2023-03-17T14:55:56.346Z,1.83
2023-03-17T14:58:06.297Z,1.48
2023-03-17T15:00:37.961Z,0.93
2023-03-17T15:02:59.102Z,1.52
2023-03-17T15:05:03.307Z,1.92
2023-03-17T15:07:07.525Z,1.63
2023-03-17T15:09:19.556Z,1.65
2023-03-17T15:11:28.466Z,1.80
2023-03-17T15:13:36.720Z,1.35
2023-03-17T15:15:38.985Z,1.65
2023-03-17T15:17:43.303Z,2.15
2023-03-17T15:19:48.867Z,2.08
2023-03-17T15:21:53.003Z,2.30
2023-03-17T15:24:22.694Z,1.73
2023-03-17T15:26:31.395Z,1.45
2023-03-17T15:28:34.757Z,1.73
2023-03-17T15:30:50.696Z,1.15
2023-03-17T15:33:03.144Z,1.67
2023-03-17T15:35:19.196Z,1.10
2023-03-17T15:37:34.201Z,1.17
2023-03-17T15:39:38.948Z,1.42
2023-03-17T15:41:45.852Z,2.13
2023-03-17T15:43:54.703Z,1.08
2023-03-17T15:46:06.161Z,1.63
2023-03-17T15:48:25.944Z,1.05
2023-03-17T15:50:37.646Z,1.20
2023-03-17T15:52:46.270Z,2.45
2023-03-17T15:54:59.857Z,1.17
2023-03-17T15:57:10.076Z,1.27
2023-03-17T15:59:17.458Z,1.33
2023-03-17T16:01:25.815Z,1.80
2023-03-17T16:03:40.114Z,1.23
2023-03-17T16:05:43.617Z,2.67
2023-03-17T16:07:45.138Z,1.13
2023-03-17T16:11:53.268Z,1.85
2023-03-17T16:13:56.020Z,1.70
2023-03-17T16:16:05.608Z,1.70
2023-03-17T16:20:32.508Z,2.30
2023-03-17T16:22:36.488Z,1.63
2023-03-17T16:24:40.814Z,1.38
2023-03-17T16:26:45.078Z,1.30
2023-03-17T16:28:47.751Z,1.60
2023-03-17T16:30:53.286Z,1.77
2023-03-17T16:32:56.552Z,1.35
2023-03-17T16:35:01.347Z,1.40
2023-03-17T16:37:03.584Z,1.70
2023-03-17T16:39:10.094Z,1.70
2023-03-17T16:41:34.637Z,1.33
2023-03-17T16:43:39.777Z,1.77
2023-03-17T16:45:43.877Z,1.38
2023-03-17T16:47:45.472Z,1.48
2023-03-17T16:49:49.658Z,1.15
2023-03-17T16:51:51.164Z,1.33
2023-03-17T16:53:52.581Z,1.55
2023-03-17T16:55:54.562Z,1.65
2023-03-17T16:57:58.978Z,2.25
2023-03-17T17:00:06.610Z,2.22
2023-03-17T17:02:15.535Z,1.08
2023-03-17T17:04:20.020Z,1.20
2023-03-17T17:06:24.410Z,1.92
2023-03-17T17:08:26.220Z,1.95
2023-03-17T17:10:29.647Z,2.17
2023-03-17T17:12:34.007Z,1.40
2023-03-17T17:14:35.824Z,1.92
2023-03-17T17:16:39.957Z,1.88
2023-03-17T17:18:44.249Z,1.40
2023-03-17T17:20:48.930Z,1.52
2023-03-17T17:22:53.083Z,2.25
2023-03-17T17:24:54.542Z,1.50
2023-03-17T17:26:59.011Z,1.45
2023-03-17T17:29:19.512Z,1.77
2023-03-17T17:31:21.199Z,5.78
2023-03-17T17:33:22.861Z,1.85
2023-03-17T17:35:25.264Z,2.28
2023-03-17T17:37:27.165Z,1.63
2023-03-17T17:39:29.462Z,2.85
2023-03-17T17:41:34.421Z,1.33
2023-03-17T17:43:36.125Z,2.20
2023-03-17T17:45:41.494Z,1.33
2023-03-17T17:47:46.406Z,2.25
2023-03-17T17:49:47.950Z,1.80
2023-03-17T17:51:52.325Z,1.73
2023-03-17T17:53:56.696Z,1.60
2023-03-17T17:55:58.916Z,1.92
2023-03-17T17:58:01.111Z,1.90
2023-03-17T18:00:06.677Z,2.13
2023-03-17T18:02:08.246Z,2.80
2023-03-17T18:04:12.915Z,1.85
2023-03-17T18:06:17.958Z,2.30
2023-03-17T18:08:24.602Z,2.60
2023-03-17T18:10:44.889Z,2.05
2023-03-17T18:12:49.467Z,2.30
2023-03-17T18:14:54.637Z,1.60
2023-03-17T18:16:56.304Z,2.10
2023-03-17T18:19:00.955Z,2.67
2023-03-17T18:21:06.199Z,1.58
2023-03-17T18:23:11.198Z,1.50
2023-03-17T18:25:14.313Z,2.35
2023-03-17T18:27:34.393Z,1.92
2023-03-17T18:29:35.828Z,1.95
2023-03-17T18:31:41.823Z,2.78
2023-03-17T18:34:09.323Z,3.20
2023-03-17T18:36:12.237Z,2.05
2023-03-17T18:38:15.207Z,1.85
2023-03-17T18:40:19.336Z,3.47
2023-03-17T18:42:22.879Z,1.80
2023-03-17T18:44:25.779Z,1.88
2023-03-17T18:46:32.391Z,3.40
2023-03-17T18:50:58.075Z,3.28
2023-03-17T18:53:03.861Z,2.85
2023-03-17T18:55:14.186Z,2.60
2023-03-17T18:57:18.241Z,2.10
2023-03-17T19:01:25.775Z,3.10
2023-03-17T19:03:30.277Z,2.42
2023-03-17T19:05:52.706Z,2.67
2023-03-17T19:07:59.443Z,3.10
2023-03-17T19:12:07.808Z,2.35
2023-03-17T19:14:14.004Z,3.35
2023-03-17T19:16:16.683Z,3.42
2023-03-17T19:18:18.187Z,4.63
2023-03-17T19:20:22.378Z,4.00
2023-03-17T19:22:27.062Z,3.60
2023-03-17T19:24:32.190Z,3.80
2023-03-17T19:26:33.754Z,4.47
2023-03-17T19:28:35.217Z,3.47
2023-03-17T19:30:39.670Z,3.45
2023-03-17T19:32:44.252Z,4.30
2023-03-17T19:34:47.712Z,3.80
2023-03-17T19:36:49.400Z,2.22
2023-03-17T19:38:53.979Z,2.85
2023-03-17T19:41:01.422Z,2.63
2023-03-17T19:43:03.796Z,2.63
2023-03-17T19:45:08.473Z,2.40
2023-03-17T19:47:12.697Z,2.50
2023-03-17T19:51:37.082Z,2.88
2023-03-17T19:53:41.404Z,3.13
2023-03-17T19:56:01.800Z,2.70
2023-03-17T19:58:04.530Z,3.58
2023-03-17T20:00:10.976Z,2.97
2023-03-17T20:02:16.748Z,3.00
2023-03-17T20:04:19.656Z,3.08
2023-03-17T20:06:21.576Z,2.88
2023-03-17T20:08:26.513Z,2.92
2023-03-17T20:10:30.891Z,3.47
2023-03-17T20:12:38.020Z,2.88
2023-03-17T20:14:42.282Z,2.83
2023-03-17T20:16:43.837Z,2.83
2023-03-17T20:18:48.209Z,3.83
2023-03-17T20:20:53.687Z,2.53
2023-03-17T20:22:55.713Z,2.78
2023-03-17T20:25:15.503Z,2.50
2023-03-17T20:27:17.467Z,2.25
2023-03-17T20:29:19.009Z,2.35
2023-03-17T20:33:25.117Z,1.95
2023-03-17T20:35:29.228Z,2.60
2023-03-17T20:37:30.897Z,4.38
2023-03-17T20:39:32.512Z,2.30
2023-03-17T20:41:37.257Z,2.17
2023-03-17T20:43:41.771Z,2.55
2023-03-17T20:45:43.465Z,2.88
2023-03-17T20:47:45.255Z,2.22
2023-03-17T20:49:47.927Z,2.35
2023-03-17T20:51:49.310Z,2.67
2023-03-17T20:55:57.597Z,2.33
2023-03-17T20:58:02.315Z,2.30
2023-03-17T21:00:04.379Z,1.90
2023-03-17T21:02:13.209Z,1.83
2023-03-17T21:04:16.210Z,2.88
2023-03-17T21:06:20.747Z,1.92
2023-03-17T21:08:24.984Z,1.90
2023-03-17T21:10:45.417Z,3.20
2023-03-17T21:12:49.726Z,2.17
2023-03-17T21:14:53.971Z,1.85
2023-03-17T21:16:55.502Z,2.40
2023-03-17T21:19:00.133Z,1.80
2023-03-17T21:21:01.584Z,2.13
2023-03-17T21:23:07.849Z,2.17
2023-03-17T21:25:10.348Z,2.40
2023-03-17T21:27:11.833Z,2.05
2023-03-17T21:29:13.639Z,2.47
2023-03-17T21:31:17.083Z,1.67
2023-03-17T21:33:18.683Z,2.03
2023-03-17T21:35:24.994Z,4.57
2023-03-17T21:37:29.143Z,2.53
2023-03-17T21:41:43.047Z,2.65
2023-03-17T21:43:55.400Z,1.50
2023-03-17T21:45:59.019Z,1.60
2023-03-17T21:48:04.008Z,1.58
2023-03-17T21:50:10.606Z,1.70
2023-03-17T21:52:32.371Z,3.05
2023-03-17T21:54:38.270Z,2.72
2023-03-17T21:56:42.471Z,1.98
2023-03-17T21:58:49.126Z,2.50
2023-03-17T22:00:52.705Z,2.78
2023-03-17T22:02:57.116Z,2.53
2023-03-17T22:05:00.828Z,3.33
2023-03-17T22:07:07.392Z,2.33
2023-03-17T22:09:14.063Z,2.55
2023-03-17T22:11:20.854Z,2.80
2023-03-17T22:13:24.342Z,3.10
2023-03-17T22:15:29.520Z,3.13
2023-03-17T22:17:36.093Z,2.20
2023-03-17T22:19:42.332Z,2.60
2023-03-17T22:21:43.991Z,2.40
2023-03-17T22:24:04.293Z,2.80
2023-03-17T22:26:10.761Z,4.93
2023-03-17T22:28:12.539Z,2.58
2023-03-17T22:30:14.627Z,2.38
2023-03-17T22:32:18.661Z,1.92
2023-03-17T22:34:23.367Z,1.73
2023-03-17T22:36:25.646Z,3.35
2023-03-17T22:38:27.108Z,3.00
2023-03-17T22:40:47.406Z,2.15
2023-03-17T22:42:48.878Z,3.35
2023-03-17T22:46:54.687Z,4.00
2023-03-17T22:48:56.200Z,2.70
2023-03-17T22:51:01.513Z,2.88
2023-03-17T22:53:05.867Z,2.05
2023-03-17T22:55:07.851Z,2.97
2023-03-17T22:57:09.351Z,2.58
2023-03-17T22:59:13.618Z,2.70
2023-03-17T23:01:34.005Z,3.55
2023-03-17T23:03:36.209Z,2.45
2023-03-17T23:05:38.267Z,3.60
2023-03-17T23:07:49.697Z,2.60
2023-03-17T23:09:54.574Z,2.13
2023-03-17T23:11:59.706Z,3.38
2023-03-17T23:14:01.231Z,2.58
2023-03-17T23:16:03.463Z,3.17
2023-03-17T23:18:09.003Z,3.05
2023-03-17T23:20:11.979Z,2.08
2023-03-17T23:22:16.257Z,2.00
2023-03-17T23:24:36.440Z,2.58
2023-03-17T23:26:37.951Z,3.08
2023-03-17T23:28:58.227Z,4.10
2023-03-17T23:30:59.772Z,3.53
2023-03-17T23:33:04.876Z,2.30
2023-03-17T23:35:13.618Z,2.38
2023-03-17T23:37:17.639Z,1.98
2023-03-17T23:39:19.419Z,2.45
2023-03-17T23:41:23.844Z,2.45
2023-03-17T23:43:28.121Z,3.15
2023-03-17T23:45:35.657Z,2.80
2023-03-17T23:47:38.276Z,2.92
2023-03-17T23:49:39.690Z,3.22
2023-03-17T23:51:43.919Z,2.67
2023-03-17T23:53:48.109Z,2.15
2023-03-17T23:57:57.439Z,2.22
2023-03-17T23:59:58.886Z,2.55
